Time;durP1;ratioP1;P1;durP2;ratioP2;P2;SDS_P1;SDS_P2;PMS_P1;PMS_P2;Temp;Humidity;BMP_temperature;BMP_pressure;BME280_temperature;BME280_humidity;BME280_pressure;Samples;Min_cycle;Max_cycle;Signal;HPM_P1;HPM_P2
2022/05/24 00:01:27;;;;;;;;;;;;;;;16.04;76.28;94797.19;5134084;27;1025;-49
2022/05/24 00:03:53;;;;;;;;;;;;;;;16.07;76.19;94794.09;5134123;27;1020;-49
2022/05/24 00:06:19;;;;;;;;;;;;;;;16.10;76.15;94801.75;5118350;28;1160;-49
2022/05/24 00:08:45;;;;;;;;;;;;;;;15.94;76.14;94796.75;5113452;28;1024;-49
2022/05/24 00:11:11;;;;;;;;;;;;;;;15.78;76.98;94796.09;5113330;28;960;-49
2022/05/24 00:13:37;;;;;;;;;;;;;;;15.79;77.25;94794.22;5113243;28;1283;-49
2022/05/24 00:16:04;;;;;;;;;;;;;;;15.88;77.05;94795.72;5113460;28;1125;-49
2022/05/24 00:18:30;;;;;;;;;;;;;;;15.88;77.23;94803.78;5113428;28;1905;-49
2022/05/24 00:20:58;;;;;;;;;;;;;;;15.84;76.90;94801.69;5113465;28;1024;-50
2022/05/24 00:23:25;;;;;;;;;;;;;;;15.83;77.26;94806.25;5113361;28;972;-49
2022/05/24 00:25:52;;;;;;;;;;;;;;;15.66;77.96;94807.63;5113516;28;1116;-49
2022/05/24 00:28:19;;;;;;;;;;;;;;;15.72;77.87;94807.63;5113499;28;977;-49
2022/05/24 00:30:48;;;;;;;;;;;;;;;15.87;77.62;94802.13;5113326;28;1107;-49
2022/05/24 00:33:14;;;;;;;;;;;;;;;16.02;77.07;94806.53;5113124;28;1032;-50
2022/05/24 00:35:41;;;;;;;;;;;;;;;15.93;77.43;94813.97;5113511;28;1054;-49
2022/05/24 00:38:10;;;;;;;;;;;;;;;15.75;77.64;94812.66;5113098;28;1914;-49
2022/05/24 00:40:45;;;;;;;;;;;;;;;15.68;77.28;94811.75;5113304;28;1051;-49
2022/05/24 00:43:23;;;;;;;;;;;;;;;15.56;78.26;94802.59;5113328;28;967;-49
2022/05/24 00:45:51;;;;;;;;;;;;;;;15.69;78.34;94807.19;5113583;28;1046;-49
2022/05/24 00:48:30;;;;;;;;;;;;;;;15.81;78.18;94806.44;5113329;28;1017;-49
2022/05/24 00:50:56;;;;;;;;;;;;;;;15.87;77.76;94802.13;5113414;28;1050;-49
2022/05/24 00:53:25;;;;;;;;;;;;;;;15.97;77.76;94777.47;5112920;28;1071;-49
2022/05/24 00:56:01;;;;;;;;;;;;;;;16.05;77.79;94758.41;5116955;28;1043;-49
2022/05/24 00:58:30;;;;;;;;;;;;;;;15.94;78.29;94762.53;5116889;28;1905;-49
2022/05/24 01:01:00;;;;;;;;;;;;;;;15.86;78.74;94760.03;5116906;28;948;-49
2022/05/24 01:03:27;;;;;;;;;;;;;;;15.93;81.12;94752.78;5116867;28;1044;-49
2022/05/24 01:05:53;;;;;;;;;;;;;;;15.89;81.22;94765.00;5128773;27;1153;-49
2022/05/24 01:08:19;;;;;;;;;;;;;;;15.94;81.21;94770.63;5137355;27;979;-48
2022/05/24 01:10:48;;;;;;;;;;;;;;;16.02;81.75;94775.00;5137689;27;1042;-49
2022/05/24 01:13:24;;;;;;;;;;;;;;;16.12;81.97;94777.28;5137049;27;1252;-49
2022/05/24 01:15:51;;;;;;;;;;;;;;;16.16;81.70;94782.09;5137562;27;979;-49
2022/05/24 01:18:17;;;;;;;;;;;;;;;16.13;81.59;94787.06;5136882;27;1992;-48
2022/05/24 01:20:44;;;;;;;;;;;;;;;16.07;81.59;94780.63;5137309;27;1007;-49
2022/05/24 01:23:10;;;;;;;;;;;;;;;15.98;82.11;94784.53;5135887;27;1030;-49
2022/05/24 01:25:52;;;;;;;;;;;;;;;15.95;81.60;94790.31;5136995;27;979;-49
2022/05/24 01:28:25;;;;;;;;;;;;;;;15.84;82.33;94789.06;5137132;27;959;-49
2022/05/24 01:30:52;;;;;;;;;;;;;;;15.68;82.56;94790.19;5136856;27;1873;-49
2022/05/24 01:36:10;;;;;;;;;;;;;;;15.50;82.81;94784.53;5137127;27;1009;-49
2022/05/24 01:38:37;;;;;;;;;;;;;;;15.47;82.91;94793.84;5136722;27;1905;-48
2022/05/24 01:41:03;;;;;;;;;;;;;;;15.58;82.44;94784.38;5136732;27;1032;-48
2022/05/24 01:43:29;;;;;;;;;;;;;;;15.65;81.66;94787.94;5136665;27;1015;-48
2022/05/24 01:46:00;;;;;;;;;;;;;;;15.65;82.29;94785.22;5137245;27;975;-49
2022/05/24 01:48:29;;;;;;;;;;;;;;;15.60;83.12;94779.59;5136727;27;1032;-49
2022/05/24 01:50:58;;;;;;;;;;;;;;;15.58;82.63;94785.19;5134916;27;1088;-49
2022/05/24 01:53:26;;;;;;;;;;;;;;;15.49;83.48;94774.78;5136269;27;1055;-49
2022/05/24 01:55:54;;;;;;;;;;;;;;;15.40;83.26;94777.66;5136371;27;1003;-49
2022/05/24 01:58:22;;;;;;;;;;;;;;;15.36;83.38;94779.06;5136152;27;1922;-49
2022/05/24 02:00:52;;;;;;;;;;;;;;;15.38;82.58;94784.25;5136938;27;1010;-49
2022/05/24 02:03:18;;;;;;;;;;;;;;;15.34;83.55;94773.06;5136292;27;1011;-49
2022/05/24 02:05:45;;;;;;;;;;;;;;;15.40;82.37;94774.13;5124267;27;1156;-49
2022/05/24 02:08:11;;;;;;;;;;;;;;;15.29;82.59;94777.38;5115357;28;1023;-49
2022/05/24 02:10:43;;;;;;;;;;;;;;;15.19;83.62;94780.44;5115464;28;1095;-49
2022/05/24 02:13:11;;;;;;;;;;;;;;;15.28;83.59;94773.84;5115440;28;1106;-50
2022/05/24 02:15:39;;;;;;;;;;;;;;;15.17;82.56;94782.50;5115471;28;1075;-49
2022/05/24 02:18:06;;;;;;;;;;;;;;;15.08;83.53;94772.91;5115169;28;1905;-49
2022/05/24 02:20:42;;;;;;;;;;;;;;;15.10;83.76;94777.09;5115252;28;1028;-49
2022/05/24 02:23:09;;;;;;;;;;;;;;;15.14;82.09;94783.75;5115088;28;1064;-49
2022/05/24 02:25:45;;;;;;;;;;;;;;;15.14;82.67;94799.03;5115208;28;960;-49
2022/05/24 02:28:12;;;;;;;;;;;;;;;15.27;82.90;94788.38;5115403;28;1200;-49
2022/05/24 02:30:49;;;;;;;;;;;;;;;15.23;82.81;94798.72;5115076;28;1012;-49
2022/05/24 02:33:15;;;;;;;;;;;;;;;15.22;83.03;94801.59;5115254;28;1052;-49
2022/05/24 02:35:41;;;;;;;;;;;;;;;15.18;83.49;94803.03;5115278;28;986;-49
2022/05/24 02:38:07;;;;;;;;;;;;;;;14.99;83.35;94799.19;5115050;28;1914;-49
2022/05/24 02:43:18;;;;;;;;;;;;;;;15.08;83.27;94795.31;5114855;28;1954;-49
2022/05/24 02:45:44;;;;;;;;;;;;;;;15.10;83.62;94800.47;5115153;28;1024;-49
2022/05/24 02:48:10;;;;;;;;;;;;;;;15.19;82.79;94792.03;5114702;28;1024;-49
2022/05/24 02:50:36;;;;;;;;;;;;;;;15.11;82.00;94804.84;5114880;28;1121;-49
2022/05/24 02:53:02;;;;;;;;;;;;;;;15.05;83.76;94808.34;5114678;28;1080;-49
2022/05/24 02:55:28;;;;;;;;;;;;;;;15.16;82.66;94802.41;5114292;28;1067;-50
2022/05/24 02:57:54;;;;;;;;;;;;;;;15.09;82.15;94812.28;5114547;28;1910;-49
2022/05/24 03:00:22;;;;;;;;;;;;;;;15.10;83.25;94813.94;5114523;28;1012;-49
2022/05/24 03:02:49;;;;;;;;;;;;;;;15.29;82.20;94807.84;5114479;28;1015;-49
2022/05/24 03:05:15;;;;;;;;;;;;;;;15.30;82.59;94814.06;5121031;27;1216;-49
2022/05/24 03:10:27;;;;;;;;;;;;;;;15.25;82.08;94817.34;5134843;27;1023;-49
2022/05/24 03:15:41;;;;;;;;;;;;;;;15.28;83.86;94816.94;5134713;27;1004;-48
2022/05/24 03:18:09;;;;;;;;;;;;;;;15.26;83.18;94813.63;5134377;27;1996;-48
2022/05/24 03:20:35;;;;;;;;;;;;;;;15.11;82.46;94815.63;5134831;27;1023;-48
2022/05/24 03:23:02;;;;;;;;;;;;;;;15.09;83.47;94817.66;5134993;27;1040;-48
2022/05/24 03:25:28;;;;;;;;;;;;;;;15.09;83.01;94810.41;5134611;27;1031;-48
2022/05/24 03:27:54;;;;;;;;;;;;;;;15.14;84.06;94809.81;5134557;27;1020;-48
2022/05/24 03:30:20;;;;;;;;;;;;;;;15.22;84.01;94805.13;5134654;27;1025;-48
2022/05/24 03:32:48;;;;;;;;;;;;;;;15.20;83.63;94804.47;5134652;27;1034;-48
2022/05/24 03:35:14;;;;;;;;;;;;;;;15.20;83.33;94785.63;5134430;27;1007;-48
2022/05/24 03:37:41;;;;;;;;;;;;;;;15.31;83.21;94788.78;5134351;27;1996;-48
2022/05/24 03:40:09;;;;;;;;;;;;;;;15.31;83.70;94805.78;5134654;27;969;-48
2022/05/24 03:42:35;;;;;;;;;;;;;;;15.32;84.37;94799.34;5134263;27;1079;-48
2022/05/24 03:45:02;;;;;;;;;;;;;;;15.39;84.58;94811.00;5134553;27;1015;-48
2022/05/24 03:47:28;;;;;;;;;;;;;;;15.52;83.76;94814.81;5134493;27;977;-48
2022/05/24 03:49:54;;;;;;;;;;;;;;;15.57;83.24;94815.84;5134292;27;991;-48
2022/05/24 03:52:20;;;;;;;;;;;;;;;15.66;82.42;94805.75;5134369;27;972;-48
2022/05/24 03:54:46;;;;;;;;;;;;;;;15.62;82.46;94797.22;5133940;27;1055;-48
2022/05/24 03:59:57;;;;;;;;;;;;;;;15.68;82.32;94800.97;5134372;27;953;-48
2022/05/24 04:02:23;;;;;;;;;;;;;;;15.70;83.48;94803.47;5134260;27;1036;-48
2022/05/24 04:04:49;;;;;;;;;;;;;;;15.65;83.94;94808.63;5131167;27;1200;-48
2022/05/24 04:07:15;;;;;;;;;;;;;;;15.70;82.39;94806.19;5113486;28;973;-48
2022/05/24 04:09:41;;;;;;;;;;;;;;;15.69;82.97;94820.66;5113297;28;968;-48
2022/05/24 04:12:08;;;;;;;;;;;;;;;15.70;82.97;94825.88;5113460;28;1084;-48
2022/05/24 04:14:34;;;;;;;;;;;;;;;15.71;82.62;94826.72;5113374;28;1087;-48
2022/05/24 04:17:00;;;;;;;;;;;;;;;15.91;82.31;94829.50;5113333;28;1918;-48
2022/05/24 04:19:26;;;;;;;;;;;;;;;16.25;80.56;94827.75;5113712;28;1038;-48
2022/05/24 04:21:53;;;;;;;;;;;;;;;16.44;80.42;94832.34;5113196;28;1028;-48
2022/05/24 04:24:19;;;;;;;;;;;;;;;16.47;80.50;94828.41;5112013;28;1170;-48
2022/05/24 04:26:45;;;;;;;;;;;;;;;16.60;80.48;94831.13;5113414;28;1023;-48
2022/05/24 04:29:14;;;;;;;;;;;;;;;16.79;79.18;94832.19;5114220;28;1107;-48
2022/05/24 04:31:41;;;;;;;;;;;;;;;16.88;78.98;94836.34;5117262;28;1012;-49
2022/05/24 04:34:07;;;;;;;;;;;;;;;16.92;78.65;94834.91;5117882;28;1028;-48
2022/05/24 04:36:33;;;;;;;;;;;;;;;16.97;78.92;94828.88;5117153;28;1051;-48
2022/05/24 04:38:59;;;;;;;;;;;;;;;17.15;78.15;94829.06;5117526;28;1969;-49
2022/05/24 04:44:10;;;;;;;;;;;;;;;17.23;77.88;94824.50;5117604;28;1031;-48
2022/05/24 04:49:22;;;;;;;;;;;;;;;17.45;75.48;94838.56;5117200;28;1031;-49
2022/05/24 04:51:51;;;;;;;;;;;;;;;17.66;74.47;94841.03;5117196;28;965;-48
2022/05/24 04:54:17;;;;;;;;;;;;;;;17.84;75.93;94840.38;5117055;28;1044;-49
2022/05/24 04:56:43;;;;;;;;;;;;;;;17.97;75.01;94847.59;5116988;28;1961;-49
2022/05/24 04:59:09;;;;;;;;;;;;;;;18.14;74.66;94853.34;5117095;28;984;-49
2022/05/24 05:01:35;;;;;;;;;;;;;;;18.28;72.90;94854.09;5116557;28;975;-49
2022/05/24 05:04:02;;;;;;;;;;;;;;;18.33;73.20;94863.25;5117103;28;1027;-49
2022/05/24 05:06:28;;;;;;;;;;;;;;;18.42;73.96;94855.72;5133294;27;1211;-48
2022/05/24 05:08:54;;;;;;;;;;;;;;;18.80;71.05;94860.28;5137298;27;1104;-48
2022/05/24 05:11:20;;;;;;;;;;;;;;;19.23;70.05;94858.69;5137157;27;1032;-48
2022/05/24 05:13:47;;;;;;;;;;;;;;;19.95;67.19;94864.44;5137163;27;1083;-48
2022/05/24 05:16:13;;;;;;;;;;;;;;;20.45;64.75;94852.53;5137107;27;987;-49
2022/05/24 05:18:39;;;;;;;;;;;;;;;20.88;64.00;94858.88;5136904;27;1992;-49
2022/05/24 05:21:05;;;;;;;;;;;;;;;21.16;63.22;94864.47;5136854;27;1036;-49
2022/05/24 05:23:31;;;;;;;;;;;;;;;20.83;63.30;94854.97;5136801;27;997;-49
2022/05/24 05:25:57;;;;;;;;;;;;;;;20.88;63.18;94867.03;5136864;27;1056;-48
2022/05/24 05:28:23;;;;;;;;;;;;;;;21.38;62.94;94861.16;5137137;27;1019;-49
2022/05/24 05:33:34;;;;;;;;;;;;;;;22.04;59.31;94867.31;5136736;27;1024;-49
2022/05/24 05:36:01;;;;;;;;;;;;;;;22.25;58.72;94868.59;5136533;27;1020;-50
2022/05/24 05:38:27;;;;;;;;;;;;;;;22.32;59.39;94863.84;5136779;27;1977;-49
2022/05/24 05:40:54;;;;;;;;;;;;;;;22.02;60.21;94862.13;5136553;27;1019;-49
2022/05/24 05:43:20;;;;;;;;;;;;;;;21.74;61.12;94857.44;5136812;27;999;-48
2022/05/24 05:45:53;;;;;;;;;;;;;;;21.26;62.59;94851.13;5136888;27;1661;-49
2022/05/24 05:48:20;;;;;;;;;;;;;;;20.79;64.09;94855.63;5136696;27;980;-49
2022/05/24 05:50:47;;;;;;;;;;;;;;;20.80;65.30;94849.16;5136702;27;1047;-48
2022/05/24 05:53:13;;;;;;;;;;;;;;;20.64;66.31;94856.06;5136638;27;1017;-49
2022/05/24 05:55:41;;;;;;;;;;;;;;;20.75;65.84;94863.41;5136479;27;999;-49
2022/05/24 05:58:08;;;;;;;;;;;;;;;20.85;64.94;94874.56;5136526;27;1913;-49
2022/05/24 06:00:34;;;;;;;;;;;;;;;20.83;65.08;94871.25;5136509;27;1000;-49
2022/05/24 06:03:00;;;;;;;;;;;;;;;20.90;65.41;94868.44;5136484;27;1031;-50
2022/05/24 06:05:26;;;;;;;;;;;;;;;21.02;64.47;94873.91;5128198;27;1211;-49
2022/05/24 06:07:54;;;;;;;;;;;;;;;21.12;64.75;94879.59;5115539;28;1080;-50
2022/05/24 06:10:20;;;;;;;;;;;;;;;21.20;62.48;94876.53;5115932;28;1027;-50
2022/05/24 06:12:47;;;;;;;;;;;;;;;21.33;62.93;94877.38;5114203;28;973;-50
2022/05/24 06:15:13;;;;;;;;;;;;;;;21.55;63.24;94878.50;5115457;28;1103;-50
2022/05/24 06:17:46;;;;;;;;;;;;;;;21.63;62.10;94880.03;5115139;28;1988;-50
2022/05/24 06:20:14;;;;;;;;;;;;;;;21.90;60.81;94885.81;5115563;28;957;-50
2022/05/24 06:22:40;;;;;;;;;;;;;;;21.88;61.29;94870.78;5115287;28;1040;-50
2022/05/24 06:25:07;;;;;;;;;;;;;;;21.85;60.55;94874.81;5115153;28;1040;-50
2022/05/24 06:27:33;;;;;;;;;;;;;;;21.92;60.77;94877.41;5114984;28;1043;-50
2022/05/24 06:29:59;;;;;;;;;;;;;;;21.93;60.21;94885.34;5115213;28;975;-50
2022/05/24 06:32:25;;;;;;;;;;;;;;;22.03;60.98;94887.47;5115240;28;953;-50
2022/05/24 06:34:53;;;;;;;;;;;;;;;22.08;59.53;94886.72;5115229;28;1044;-50
2022/05/24 06:37:19;;;;;;;;;;;;;;;22.19;59.05;94885.88;5114802;28;1902;-50
2022/05/24 06:39:46;;;;;;;;;;;;;;;22.46;59.94;94882.63;5115251;28;1125;-50
2022/05/24 06:42:12;;;;;;;;;;;;;;;22.45;59.83;94881.00;5114635;28;1020;-50
2022/05/24 06:44:38;;;;;;;;;;;;;;;22.72;58.00;94897.59;5115170;28;1031;-50
2022/05/24 06:47:04;;;;;;;;;;;;;;;22.59;58.39;94887.81;5114696;28;1016;-50
2022/05/24 06:49:30;;;;;;;;;;;;;;;22.41;57.98;94884.19;5114639;28;1059;-50
2022/05/24 06:51:57;;;;;;;;;;;;;;;22.57;58.92;94879.88;5114215;28;979;-50
2022/05/24 06:54:23;;;;;;;;;;;;;;;22.96;57.27;94876.50;5114761;28;1047;-50
2022/05/24 06:56:49;;;;;;;;;;;;;;;23.15;56.98;94877.97;5114715;28;1902;-50
2022/05/24 07:04:44;;;;;;;;;;;;;;;23.31;56.21;94872.75;5116675;27;1220;-50
2022/05/24 07:07:10;;;;;;;;;;;;;;;23.65;56.94;94879.03;5134886;27;964;-50
2022/05/24 07:09:40;;;;;;;;;;;;;;;23.77;54.70;94884.38;5135134;27;1047;-50
2022/05/24 07:12:06;;;;;;;;;;;;;;;23.78;57.45;94881.44;5134474;27;2743;-49
2022/05/24 07:14:35;;;;;;;;;;;;;;;24.00;55.96;94882.56;5134491;27;1074;-49
2022/05/24 07:17:02;;;;;;;;;;;;;;;24.04;56.41;94878.28;5135008;27;1984;-49
2022/05/24 07:19:29;;;;;;;;;;;;;;;24.20;55.69;94882.84;5134781;27;1007;-50
2022/05/24 07:21:55;;;;;;;;;;;;;;;24.37;55.51;94880.06;5134781;27;1071;-50
2022/05/24 07:24:21;;;;;;;;;;;;;;;24.33;54.47;94870.72;5134521;27;976;-50
2022/05/24 07:26:47;;;;;;;;;;;;;;;24.37;55.30;94871.84;5134621;27;1021;-49
2022/05/24 07:29:13;;;;;;;;;;;;;;;24.49;55.05;94874.44;5134960;27;1023;-50
2022/05/24 07:31:39;;;;;;;;;;;;;;;24.61;54.84;94883.38;5120744;27;2773;-48
2022/05/24 07:34:06;;;;;;;;;;;;;;;24.71;55.12;94879.94;5114212;28;961;-47
2022/05/24 07:36:32;;;;;;;;;;;;;;;24.81;54.78;94884.69;5114326;28;1043;-47
2022/05/24 07:39:01;;;;;;;;;;;;;;;24.91;53.33;94877.44;5114033;28;1914;-47
2022/05/24 07:46:56;;;;;;;;;;;;;;;25.32;54.39;94874.28;5113953;28;1052;-47
2022/05/24 07:49:22;;;;;;;;;;;;;;;25.37;54.19;94871.59;5113601;28;1015;-47
2022/05/24 07:51:49;;;;;;;;;;;;;;;25.35;52.48;94857.34;5114162;28;1023;-47
2022/05/24 07:54:15;;;;;;;;;;;;;;;25.26;53.12;94850.69;5113514;28;1099;-47
2022/05/24 07:56:42;;;;;;;;;;;;;;;25.54;53.47;94846.00;5113681;28;1063;-47
2022/05/24 07:59:08;;;;;;;;;;;;;;;25.67;52.53;94840.06;5113455;28;1918;-47
2022/05/24 08:01:36;;;;;;;;;;;;;;;25.64;53.24;94844.16;5113741;28;953;-48
2022/05/24 08:04:03;;;;;;;;;;;;;;;25.98;53.50;94834.81;5113639;28;1181;-48
2022/05/24 08:06:29;;;;;;;;;;;;;;;26.07;53.22;94828.56;5130454;27;1157;-47
2022/05/24 08:08:55;;;;;;;;;;;;;;;25.75;53.57;94822.31;5134124;27;1179;-47
2022/05/24 08:11:21;;;;;;;;;;;;;;;25.92;54.33;94814.78;5134458;28;1042;-47
2022/05/24 08:13:47;;;;;;;;;;;;;;;26.21;54.51;94822.59;5133931;28;1075;-47
2022/05/24 08:16:13;;;;;;;;;;;;;;;26.40;53.10;94817.47;5134228;28;1028;-49
2022/05/24 08:18:39;;;;;;;;;;;;;;;26.17;53.29;94816.00;5134156;27;1994;-47
2022/05/24 08:21:06;;;;;;;;;;;;;;;26.53;54.27;94819.69;5134229;28;1028;-47
2022/05/24 08:23:33;;;;;;;;;;;;;;;26.64;53.48;94831.56;5133949;27;1052;-47
2022/05/24 08:25:59;;;;;;;;;;;;;;;26.56;53.96;94819.16;5134351;27;1220;-47
2022/05/24 08:28:25;;;;;;;;;;;;;;;26.70;53.63;94829.66;5134244;28;1024;-47
2022/05/24 08:30:53;;;;;;;;;;;;;;;26.85;53.28;94826.94;5134103;27;1004;-47
2022/05/24 08:33:21;;;;;;;;;;;;;;;26.84;53.29;94833.50;5134181;27;949;-47
2022/05/24 08:35:47;;;;;;;;;;;;;;;26.92;54.08;94829.41;5134100;27;1152;-47
2022/05/24 08:38:13;;;;;;;;;;;;;;;27.08;52.93;94826.41;5133832;27;1902;-47
2022/05/24 08:40:41;;;;;;;;;;;;;;;27.19;52.27;94816.28;5134268;28;964;-47
2022/05/24 08:43:10;;;;;;;;;;;;;;;27.28;52.37;94816.59;5134050;27;1039;-47
2022/05/24 08:48:41;;;;;;;;;;;;;;;27.34;51.90;94811.91;5133936;28;1027;-47
2022/05/24 08:51:13;;;;;;;;;;;;;;;27.26;53.14;94816.84;5134025;27;1032;-47
2022/05/24 08:53:45;;;;;;;;;;;;;;;27.58;53.47;94823.16;5133518;27;1039;-47
2022/05/24 08:56:20;;;;;;;;;;;;;;;27.72;52.28;94821.50;5134092;27;1036;-47
2022/05/24 08:58:50;;;;;;;;;;;;;;;27.35;52.30;94814.38;5133641;27;1905;-47
2022/05/24 09:01:20;;;;;;;;;;;;;;;27.36;51.92;94817.97;5134117;27;1020;-47
2022/05/24 09:03:46;;;;;;;;;;;;;;;27.56;51.26;94806.13;5133740;27;1211;-47
2022/05/24 09:06:28;;;;;;;;;;;;;;;27.50;49.89;94810.00;5133969;28;1157;-47
2022/05/24 09:09:02;;;;;;;;;;;;;;;26.90;52.91;94821.47;5133891;28;1055;-47
2022/05/24 09:11:39;;;;;;;;;;;;;;;27.07;51.35;94822.03;5133769;27;1488;-47
2022/05/24 09:14:22;;;;;;;;;;;;;;;27.21;52.81;94814.06;5133613;27;1095;-48
2022/05/24 09:16:48;;;;;;;;;;;;;;;27.91;51.78;94815.44;5137037;27;1091;-47
2022/05/24 09:19:17;;;;;;;;;;;;;;;28.03;50.64;94811.28;5137361;27;969;-48
2022/05/24 09:21:44;;;;;;;;;;;;;;;27.61;52.09;94815.19;5137605;27;1024;-47
2022/05/24 09:24:20;;;;;;;;;;;;;;;27.42;51.86;94801.19;5137101;27;1055;-48
2022/05/24 09:27:04;;;;;;;;;;;;;;;27.72;51.26;94802.25;5137498;27;1036;-47
2022/05/24 09:29:31;;;;;;;;;;;;;;;27.37;52.42;94808.63;5137002;27;988;-47
2022/05/24 09:31:59;;;;;;;;;;;;;;;27.07;52.97;94810.22;5137195;27;913;-47
2022/05/24 09:34:28;;;;;;;;;;;;;;;27.07;51.91;94804.72;5137140;27;1072;-47
2022/05/24 09:37:00;;;;;;;;;;;;;;;27.31;51.69;94805.03;5137378;27;1909;-47
2022/05/24 09:39:26;;;;;;;;;;;;;;;27.77;50.43;94804.97;5137105;27;921;-47
2022/05/24 09:41:59;;;;;;;;;;;;;;;27.41;49.79;94801.47;5136963;27;1197;-47
2022/05/24 09:44:27;;;;;;;;;;;;;;;27.69;51.14;94802.00;5137034;27;964;-47
2022/05/24 09:46:54;;;;;;;;;;;;;;;28.06;48.90;94800.81;5137241;27;1008;-47
2022/05/24 09:49:22;;;;;;;;;;;;;;;28.16;50.51;94787.88;5136888;27;1064;-47
2022/05/24 09:51:50;;;;;;;;;;;;;;;28.09;49.61;94784.59;5136806;27;1245;-47
2022/05/24 09:54:21;;;;;;;;;;;;;;;28.15;48.75;94790.91;5136899;27;976;-47
2022/05/24 09:57:01;;;;;;;;;;;;;;;28.09;48.61;94790.09;5137056;27;1007;-47
2022/05/24 09:59:28;;;;;;;;;;;;;;;28.31;48.72;94783.44;5136742;27;1042;-47
2022/05/24 10:01:54;;;;;;;;;;;;;;;28.39;48.04;94788.34;5136837;27;1024;-47
2022/05/24 10:04:25;;;;;;;;;;;;;;;28.19;48.91;94781.84;5136787;27;1032;-47
2022/05/24 10:06:57;;;;;;;;;;;;;;;27.63;49.06;94785.53;5116480;27;1160;-47
2022/05/24 10:09:44;;;;;;;;;;;;;;;27.53;49.36;94780.06;5116016;28;1049;-47
2022/05/24 10:12:20;;;;;;;;;;;;;;;27.46;50.15;94776.75;5116011;28;1038;-48
2022/05/24 10:15:06;;;;;;;;;;;;;;;27.60;49.96;94774.25;5115602;28;1233;-48
2022/05/24 10:17:38;;;;;;;;;;;;;;;27.55;47.66;94771.56;5114568;28;1925;-48
2022/05/24 10:20:23;;;;;;;;;;;;;;;27.55;47.40;94766.06;5115846;28;1027;-49
2022/05/24 10:22:49;;;;;;;;;;;;;;;28.02;47.53;94756.59;5115794;28;987;-47
2022/05/24 10:25:18;;;;;;;;;;;;;;;28.27;48.11;94761.19;5115371;28;1030;-47
2022/05/24 10:28:04;;;;;;;;;;;;;;;28.30;47.29;94751.53;5114744;28;998;-48
2022/05/24 10:30:54;;;;;;;;;;;;;;;28.37;46.38;94749.31;5124152;27;2863;-48
2022/05/24 10:39:18;;;;;;;;;;;;;;;28.55;46.25;94751.44;5135681;27;1909;-47
2022/05/24 10:41:55;;;;;;;;;;;;;;;28.61;47.15;94747.53;5135632;27;1043;-47
2022/05/24 10:44:29;;;;;;;;;;;;;;;28.65;46.00;94742.31;5135878;27;1011;-47
2022/05/24 10:47:18;;;;;;;;;;;;;;;28.74;44.63;94734.25;5135502;27;1040;-47
2022/05/24 10:49:48;;;;;;;;;;;;;;;28.79;45.65;94742.47;5135403;27;1830;-48
2022/05/24 10:52:30;;;;;;;;;;;;;;;28.73;45.97;94736.19;5135476;27;991;-48
2022/05/24 10:55:02;;;;;;;;;;;;;;;28.78;44.89;94741.66;5135553;27;1023;-48
2022/05/24 10:57:38;;;;;;;;;;;;;;;28.76;46.37;94734.78;5134327;27;1934;-48
2022/05/24 11:00:07;;;;;;;;;;;;;;;28.61;44.16;94746.72;5135607;27;965;-48
2022/05/24 11:02:39;;;;;;;;;;;;;;;28.43;44.63;94742.66;5135365;27;988;-49
2022/05/24 11:05:05;;;;;;;;;;;;;;;28.69;45.89;94748.88;5130643;27;1164;-47
2022/05/24 11:07:33;;;;;;;;;;;;;;;28.83;44.91;94734.47;5114428;28;968;-47
2022/05/24 11:10:09;;;;;;;;;;;;;;;28.81;44.44;94734.75;5114943;28;973;-47
2022/05/24 11:12:38;;;;;;;;;;;;;;;28.90;44.67;94729.47;5114682;28;1081;-47
2022/05/24 11:15:07;;;;;;;;;;;;;;;28.95;45.18;94730.25;5114364;28;1850;-47
2022/05/24 11:17:33;;;;;;;;;;;;;;;29.09;45.09;94730.41;5114080;28;1998;-47
2022/05/24 11:19:59;;;;;;;;;;;;;;;28.97;44.29;94725.28;5114229;28;960;-47
2022/05/24 11:22:28;;;;;;;;;;;;;;;28.93;43.37;94713.22;5114174;28;1981;-47
2022/05/24 11:25:27;;;;;;;;;;;;;;;28.92;44.42;94721.75;5113354;28;995;-48
2022/05/24 11:28:06;;;;;;;;;;;;;;;29.00;44.52;94716.44;5112776;28;1439;-50
2022/05/24 11:30:37;;;;;;;;;;;;;;;29.14;42.50;94713.03;5113948;28;1023;-47
2022/05/24 11:33:05;;;;;;;;;;;;;;;29.11;42.80;94710.84;5114251;28;1063;-47
2022/05/24 11:35:33;;;;;;;;;;;;;;;29.08;41.87;94712.25;5114396;28;977;-48
2022/05/24 11:38:12;;;;;;;;;;;;;;;29.04;43.41;94708.44;5113851;28;1984;-49
2022/05/24 11:40:49;;;;;;;;;;;;;;;29.24;41.98;94707.47;5114106;28;1012;-48
2022/05/24 11:43:34;;;;;;;;;;;;;;;29.29;42.13;94712.09;5113883;28;1957;-48
2022/05/24 11:46:19;;;;;;;;;;;;;;;29.26;42.43;94698.94;5114359;28;1021;-53
2022/05/24 11:48:51;;;;;;;;;;;;;;;29.34;43.39;94699.09;5114040;28;1866;-49
2022/05/24 11:51:42;;;;;;;;;;;;;;;29.31;42.50;94696.94;5113993;28;1118;-49
2022/05/24 11:54:29;;;;;;;;;;;;;;;29.38;42.90;94693.84;5114161;28;980;-48
2022/05/24 11:57:01;;;;;;;;;;;;;;;29.31;42.89;94691.44;5114041;28;1977;-48
2022/05/24 12:00:01;;;;;;;;;;;;;;;29.44;42.01;94692.66;5114121;28;1074;-48
2022/05/24 12:02:32;;;;;;;;;;;;;;;29.57;42.53;94688.41;5113616;28;1047;-47
2022/05/24 12:07:55;;;;;;;;;;;;;;;29.66;39.79;94681.13;5134458;27;1047;-49
2022/05/24 12:10:21;;;;;;;;;;;;;;;29.85;40.21;94675.72;5134243;27;1032;-48
2022/05/24 12:12:47;;;;;;;;;;;;;;;30.03;41.28;94684.31;5134459;28;1036;-48
2022/05/24 12:15:16;;;;;;;;;;;;;;;30.12;38.29;94679.78;5134202;28;1214;-48
2022/05/24 12:17:43;;;;;;;;;;;;;;;30.14;38.48;94681.13;5134035;28;1905;-48
2022/05/24 12:20:27;;;;;;;;;;;;;;;30.11;37.14;94681.72;5134563;27;1068;-48
2022/05/24 12:23:06;;;;;;;;;;;;;;;30.13;37.28;94673.16;5133955;28;1021;-49
2022/05/24 12:25:51;;;;;;;;;;;;;;;30.24;35.64;94669.16;5134075;28;984;-60
2022/05/24 12:28:18;;;;;;;;;;;;;;;30.28;38.18;94661.06;5133954;28;1044;-48
2022/05/24 12:30:45;;;;;;;;;;;;;;;30.33;39.04;94650.81;5134079;27;1012;-48
2022/05/24 12:33:18;;;;;;;;;;;;;;;30.41;38.53;94651.28;5134235;27;959;-48
2022/05/24 12:36:07;;;;;;;;;;;;;;;30.40;38.12;94647.72;5134063;27;1586;-49
2022/05/24 12:38:35;;;;;;;;;;;;;;;30.30;37.18;94639.56;5123111;28;1894;-48
2022/05/24 12:41:09;;;;;;;;;;;;;;;30.26;37.69;94635.75;5134327;27;1032;-49
2022/05/24 12:43:36;;;;;;;;;;;;;;;30.28;36.58;94652.81;5133907;27;1028;-49
2022/05/24 12:46:02;;;;;;;;;;;;;;;30.16;37.04;94637.56;5132671;28;1087;-48
2022/05/24 12:48:33;;;;;;;;;;;;;;;30.15;36.60;94644.16;5133755;27;1024;-49
2022/05/24 12:51:01;;;;;;;;;;;;;;;30.25;35.71;94647.91;5136143;27;1197;-48
2022/05/24 12:53:27;;;;;;;;;;;;;;;30.30;36.17;94645.09;5137790;27;963;-48
2022/05/24 12:56:02;;;;;;;;;;;;;;;30.33;35.52;94641.75;5137902;27;1878;-48
2022/05/24 12:58:30;;;;;;;;;;;;;;;30.40;35.43;94652.41;5137584;27;1974;-48
2022/05/24 13:01:07;;;;;;;;;;;;;;;30.36;34.87;94654.94;5137930;27;1022;-48
2022/05/24 13:03:34;;;;;;;;;;;;;;;30.38;34.79;94649.94;5137547;27;1083;-49
2022/05/24 13:06:00;;;;;;;;;;;;;;;30.45;36.10;94650.41;5124994;27;1921;-48
2022/05/24 13:08:26;;;;;;;;;;;;;;;30.50;36.01;94649.50;5116979;28;1066;-48
2022/05/24 13:10:52;;;;;;;;;;;;;;;30.58;36.05;94651.56;5117053;28;1032;-48
2022/05/24 13:13:20;;;;;;;;;;;;;;;30.70;36.53;94648.38;5116864;28;1107;-48
2022/05/24 13:15:51;;;;;;;;;;;;;;;30.77;35.46;94654.28;5116760;28;1003;-48
2022/05/24 13:18:22;;;;;;;;;;;;;;;30.67;34.51;94655.28;5117009;28;1969;-48
2022/05/24 13:20:53;;;;;;;;;;;;;;;30.51;35.14;94659.41;5116876;28;952;-48
2022/05/24 13:23:22;;;;;;;;;;;;;;;30.52;35.38;94659.09;5117043;28;1011;-48
2022/05/24 13:25:51;;;;;;;;;;;;;;;30.67;34.83;94648.94;5116712;28;1016;-48
2022/05/24 13:28:35;;;;;;;;;;;;;;;30.69;33.60;94663.25;5116504;28;1527;-48
2022/05/24 13:33:54;;;;;;;;;;;;;;;30.77;34.75;94656.25;5116509;28;957;-48
2022/05/24 13:36:29;;;;;;;;;;;;;;;30.72;35.23;94655.22;5116474;28;1075;-48
2022/05/24 13:39:04;;;;;;;;;;;;;;;30.67;34.18;94659.97;5116250;28;1905;-49
2022/05/24 13:41:37;;;;;;;;;;;;;;;30.54;35.18;94656.03;5116651;28;952;-49
2022/05/24 13:44:21;;;;;;;;;;;;;;;30.51;36.00;94656.66;5116274;28;1021;-49
2022/05/24 13:46:49;;;;;;;;;;;;;;;30.47;36.84;94645.41;5116255;28;998;-49
2022/05/24 13:49:30;;;;;;;;;;;;;;;30.45;35.63;94649.56;5116203;28;1059;-50
2022/05/24 13:52:14;;;;;;;;;;;;;;;30.36;35.00;94644.72;5116442;28;1019;-49
2022/05/24 13:54:41;;;;;;;;;;;;;;;30.26;35.35;94655.88;5115821;28;956;-48
2022/05/24 13:57:19;;;;;;;;;;;;;;;30.25;35.29;94651.47;5115803;28;1909;-48
2022/05/24 13:59:54;;;;;;;;;;;;;;;30.33;35.38;94650.00;5115817;28;1032;-48